Latest Weather Observations for Newcastle Nobbys

IDN60801

Issued at 6:32 pm EST Thursday 27 July 2017 (issued every 30 minutes, with the page automatically refreshed every 10 minutes)

About weather observations | Map of weather stations | Latest weather observations for NSW | Other Formats
Station Details ID: 061055 Name: NEWCASTLE NOBBYS SIGNAL STATION AWS Lat: -32.92 Lon: 151.80 Height: 33.0 m
Data from the previous 72 hours. | See also: Recent months at Newcastle Nobbys
Date/Time
EST
Temp
°C
App
Temp
°C
Dew
Point
°C
Rel
Hum
%
Delta-T
°C
Wind Press
QNH
hPa
Press
MSL
hPa
Rain since
9am
mm
Dir  Spd
km/h
Gust
km/h
Spd
kts
Gust
kts
27/06:30pm 15.9 13.1 8.6 62 3.7 ENE 13 17 7 9 - - 0.0
27/06:00pm 15.7 13.2 8.2 61 3.8 ENE 11 17 6 9 - - 0.0
27/05:30pm 15.6 13.1 8.4 62 3.6 E 11 15 6 8 - - 0.0
27/05:00pm 15.7 13.4 8.9 64 3.5 ESE 11 15 6 8 - - 0.0
27/04:30pm 16.6 14.4 9.5 63 3.7 SE 11 17 6 9 - - 0.0
27/04:00pm 16.8 14.6 9.5 62 3.8 SE 11 17 6 9 - - 0.0
27/03:30pm 16.9 14.6 9.1 60 4.0 SE 11 15 6 8 - - 0.0
27/03:00pm 17.2 15.0 9.4 60 4.1 SSE 11 15 6 8 - - 0.0
27/02:30pm 17.5 15.5 10.1 62 3.9 S 11 15 6 8 - - 0.0
27/02:00pm 16.8 14.3 8.2 57 4.4 SSE 11 17 6 9 - - 0.0
27/01:30pm 17.1 14.8 9.0 59 4.2 S 11 15 6 8 - - 0.0
27/01:00pm 16.9 14.2 9.1 60 4.0 S 13 15 7 8 - - 0.0
27/12:30pm 17.1 15.0 8.3 56 4.5 S 9 13 5 7 - - 0.0
27/12:00pm 17.2 15.1 8.1 55 4.6 S 9 13 5 7 - - 0.0
27/11:30am 17.9 16.1 7.3 50 5.3 SSW 6 9 3 5 - - 0.0
27/11:00am 17.9 16.1 7.3 50 5.3 WNW 6 9 3 5 - - 0.0
27/10:30am 17.0 14.5 6.5 50 5.2 W 9 15 5 8 - - 0.0
27/10:00am 16.8 14.2 6.3 50 5.1 W 9 13 5 7 - - 0.0
27/09:30am 15.2 12.7 6.7 57 4.1 NW 9 11 5 6 - - 0.0
27/09:00am 14.0 12.0 6.4 60 3.7 NW 6 7 3 4 - - 0.0
27/08:30am 12.5 10.2 5.9 64 3.1 WNW 7 9 4 5 - - 0.0
27/08:00am 11.2 8.9 5.5 68 2.6 WNW 7 11 4 6 - - 0.0
27/07:30am 10.3 8.0 5.9 74 2.0 NW 7 9 4 5 - - 0.0
27/07:00am 9.7 7.0 5.5 75 1.9 NW 9 11 5 6 - - 0.0
27/06:30am 9.7 6.8 4.7 71 2.2 WNW 9 11 5 6 - - 0.0
27/06:00am 9.9 6.6 4.7 70 2.3 WNW 11 13 6 7 - - 0.0
27/05:30am 10.2 7.1 5.4 72 2.2 WNW 11 15 6 8 - - 0.0
27/05:00am 10.7 7.9 5.3 69 2.5 WNW 9 11 5 6 - - 0.0
27/04:30am 11.1 7.5 5.0 66 2.8 NW 13 15 7 8 - - 0.0
27/04:00am 12.0 7.1 4.2 59 3.5 W 19 22 10 12 - - 0.0
27/03:30am 11.9 7.5 4.6 61 3.3 WNW 17 20 9 11 - - 0.0
27/03:00am 12.4 8.3 4.6 59 3.6 WNW 15 19 8 10 - - 0.0
27/02:30am 13.4 9.7 4.6 55 4.1 WSW 13 17 7 9 - - 0.0
27/02:00am 12.9 9.7 5.1 59 3.6 W 11 13 6 7 - - 0.0
27/01:30am 13.4 9.9 3.5 51 4.5 WSW 11 15 6 8 - - 0.0
27/01:00am 13.6 10.3 4.5 54 4.2 WSW 11 15 6 8 - - 0.0
27/12:30am 13.7 10.8 4.8 55 4.1 W 9 13 5 7 - - 0.0
27/12:00am 14.2 10.7 5.3 55 4.2 W 13 17 7 9 - - 0.0
 
Date/Time
EST
Temp
°C
App
Temp
°C
Dew
Point
°C
Rel
Hum
%
Delta-T
°C
Wind Press
QNH
hPa
Press
MSL
hPa
Rain since
9am
mm
Dir  Spd
km/h
Gust
km/h
Spd
kts
Gust
kts
26/11:30pm 14.4 9.9 4.4 51 4.6 W 17 20 9 11 - - 0.0
26/11:00pm 14.6 10.3 3.4 47 5.1 W 15 17 8 9 - - 0.0
26/10:30pm 14.7 10.6 4.1 49 4.9 W 15 20 8 11 - - 0.0
26/10:00pm 15.4 12.4 3.9 46 5.3 W 9 13 5 7 - - 0.0
26/09:30pm 15.3 12.3 4.1 47 5.2 W 9 13 5 7 - - 0.0
26/09:00pm 15.7 11.9 3.8 45 5.5 W 13 19 7 10 - - 0.0
26/08:30pm 16.4 11.6 4.8 46 5.5 W 19 24 10 13 - - 0.0
26/08:00pm 16.8 13.9 4.5 44 5.8 WSW 9 15 5 8 - - 0.0
26/07:30pm 17.8 12.7 3.3 38 6.7 WSW 19 28 10 15 - - 0.0
26/07:00pm 18.3 13.5 2.6 35 7.2 WSW 17 26 9 14 - - 0.0
26/06:30pm 18.7 13.5 2.5 34 7.5 SW 19 32 10 17 - - 0.0
26/06:00pm 18.9 14.1 2.7 34 7.5 SW 17 28 9 15 - - 0.0
26/05:30pm 19.7 14.9 2.6 32 7.9 SW 17 26 9 14 - - 0.0
26/05:00pm 20.7 15.7 3.4 32 8.2 WSW 19 24 10 13 - - 0.0
26/04:30pm 21.5 16.0 4.1 32 8.4 WSW 22 32 12 17 - - 0.0
26/04:00pm 22.4 17.9 4.0 30 9.0 WSW 17 30 9 16 - - 0.0
26/03:30pm 22.4 16.1 3.5 29 9.1 WSW 26 41 14 22 - - 0.0
26/03:00pm 23.2 17.6 5.6 32 8.9 WSW 24 39 13 21 - - 0.0
26/02:37pm 23.3 16.1 5.2 31 9.1 W 32 65 17 35 - - 0.0
26/02:30pm 23.3 16.2 5.7 32 8.9 W 32 41 17 22 - - 0.0
26/02:00pm 23.5 15.8 5.4 31 9.1 W 35 50 19 27 - - 0.0
26/01:30pm 23.4 16.9 6.7 34 8.6 W 30 37 16 20 - - 0.0
26/01:00pm 22.9 17.0 5.8 33 8.6 WNW 26 41 14 22 - - 0.0
26/12:30pm 22.5 15.5 5.9 34 8.4 WNW 32 39 17 21 - - 0.0
26/12:00pm 21.7 15.1 6.0 36 7.9 NW 30 43 16 23 - - 0.0
26/11:30am 21.4 14.6 5.3 35 8.0 WNW 30 39 16 21 - - 0.0
26/11:00am 20.8 15.3 6.0 38 7.4 WNW 24 33 13 18 - - 0.0
26/10:30am 20.1 13.2 4.6 36 7.5 WNW 30 39 16 21 - - 0.0
26/10:00am 19.4 12.2 5.1 39 7.0 WNW 32 46 17 25 - - 0.0
26/09:30am 18.7 13.0 4.8 40 6.7 WNW 24 37 13 20 - - 0.0
26/09:00am 17.6 12.7 4.2 41 6.3 WNW 19 32 10 17 - - 0.0
26/08:30am 16.6 11.5 4.0 43 5.9 WNW 20 30 11 16 - - 0.0
26/08:00am 15.8 11.2 3.9 45 5.5 WNW 17 22 9 12 - - 0.0
26/07:30am 15.6 9.7 4.0 46 5.4 NW 24 28 13 15 - - 0.0
26/07:00am 15.4 8.4 4.2 47 5.2 NW 30 37 16 20 - - 0.0
26/06:30am 15.2 8.6 4.0 47 5.2 WNW 28 35 15 19 - - 0.0
26/06:00am 14.6 8.5 4.6 51 4.7 WNW 26 37 14 20 - - 0.0
26/05:57am 14.3 9.3 4.6 52 4.5 NW 20 33 11 18 - - 0.0
26/05:30am 12.3 9.8 5.0 61 3.4 W 7 13 4 7 - - 0.0
26/05:00am 12.7 9.0 6.3 65 3.0 NNW 15 20 8 11 - - 0.0
26/04:30am 12.4 9.7 5.8 64 3.1 NNW 9 15 5 8 - - 0.0
26/04:00am 12.6 9.3 6.2 65 3.0 N 13 15 7 8 - - 0.0
26/03:30am 13.6 9.0 6.7 63 3.3 NNW 20 24 11 13 - - 0.0
26/03:00am 14.6 8.3 5.9 56 4.2 NW 28 35 15 19 - - 0.0
26/02:30am 14.4 9.6 5.5 55 4.2 NW 20 30 11 16 - - 0.0
26/02:00am 14.7 8.5 6.3 57 4.1 NW 28 35 15 19 - - 0.0
26/01:30am 14.7 9.2 5.8 55 4.2 NW 24 32 13 17 - - 0.0
26/01:00am 14.8 10.3 5.9 55 4.3 NW 19 26 10 14 - - 0.0
26/12:30am 13.5 10.4 7.3 66 3.0 NNW 13 19 7 10 - - 0.0
26/12:00am 13.7 10.0 6.3 61 3.5 NNW 15 17 8 9 - - 0.0
 
Date/Time
EST
Temp
°C
App
Temp
°C
Dew
Point
°C
Rel
Hum
%
Delta-T
°C
Wind Press
QNH
hPa
Press
MSL
hPa
Rain since
9am
mm
Dir  Spd
km/h
Gust
km/h
Spd
kts
Gust
kts
25/11:30pm 14.6 10.1 6.2 57 4.0 NW 19 22 10 12 - - 0.0
25/11:00pm 14.5 11.4 7.1 61 3.6 NW 13 19 7 10 - - 0.0
25/10:30pm 14.4 10.0 6.7 60 3.7 NW 19 24 10 13 - - 0.0
25/10:00pm 14.3 10.8 7.1 62 3.5 NW 15 20 8 11 - - 0.0
25/09:30pm 14.5 10.8 6.3 58 3.9 NW 15 20 8 11 - - 0.0
25/09:00pm 14.8 11.5 6.4 57 4.1 NW 13 17 7 9 - - 0.0
25/08:30pm 15.2 12.0 7.0 58 4.0 NW 13 17 7 9 - - 0.0
25/08:00pm 15.3 11.8 7.3 59 4.0 NNW 15 19 8 10 - - 0.0
25/07:30pm 15.5 11.9 8.5 63 3.6 NW 17 19 9 10 - - 0.0
25/07:00pm 15.4 12.1 8.2 62 3.6 NNW 15 17 8 9 - - 0.0
25/06:30pm 16.1 13.3 8.6 61 3.8 NNW 13 19 7 10 - - 0.0
25/06:00pm 16.7 14.0 8.9 60 4.0 NNW 13 17 7 9 - - 0.0
25/05:30pm 17.0 14.4 7.9 55 4.6 NNW 11 13 6 7 - - 0.0
25/05:00pm 17.9 14.9 7.9 52 5.1 NNW 13 19 7 10 - - 0.0
25/04:30pm 18.9 14.8 6.1 43 6.3 NW 17 22 9 12 - - 0.0
25/04:00pm 19.3 14.8 6.1 42 6.6 NW 19 26 10 14 - - 0.0
25/03:30pm 19.5 15.4 6.3 42 6.6 NNW 17 28 9 15 - - 0.0
25/03:00pm 19.0 14.5 6.8 45 6.1 NW 20 28 11 15 - - 0.0
25/02:30pm 19.1 15.1 6.6 44 6.3 NNW 17 24 9 13 - - 0.0
25/02:00pm 19.1 14.9 5.9 42 6.5 NNW 17 28 9 15 - - 0.0
25/01:30pm 19.6 15.2 4.9 38 7.1 WNW 17 24 9 13 - - 0.0
25/01:00pm 19.6 15.3 5.3 39 7.0 W 17 28 9 15 - - 0.0
25/12:30pm 19.0 14.8 5.5 41 6.6 WNW 17 26 9 14 - - 0.0
25/12:00pm 19.0 15.9 7.1 46 6.0 WNW 13 19 7 10 - - 0.0
25/11:30am 17.8 13.7 6.3 47 5.7 WNW 17 24 9 13 - - 0.0
25/11:00am 17.6 13.3 6.8 49 5.4 WNW 19 24 10 13 - - 0.0
25/10:30am 16.6 12.4 7.3 54 4.6 WNW 19 24 10 13 - - 0.0
25/10:00am 14.9 10.3 6.7 58 4.0 NW 20 26 11 14 - - 0.0
25/09:30am 13.5 8.8 6.1 61 3.5 WNW 20 26 11 14 - - 0.0
25/09:00am 12.9 8.2 6.0 63 3.3 WNW 20 26 11 14 - - 0.0
25/08:30am 11.6 7.3 5.3 65 2.9 NW 17 22 9 12 - - 0.0
25/08:00am 10.4 6.4 4.8 68 2.5 NW 15 19 8 10 - - 0.0
25/07:30am 9.4 5.7 4.4 71 2.2 NW 13 17 7 9 - - 0.0
25/07:00am 9.0 5.3 4.4 73 2.0 NW 13 17 7 9 - - 0.0
25/06:30am 9.1 5.4 4.3 72 2.1 WNW 13 17 7 9 - - 0.0
25/06:00am 9.1 5.4 4.5 73 2.0 WNW 13 15 7 8 - - 0.0
25/05:30am 9.6 6.0 4.8 72 2.2 WNW 13 15 7 8 - - 0.0
25/05:00am 9.6 6.8 5.2 74 2.0 WNW 9 13 5 7 - - 0.0
25/04:30am 9.4 6.2 5.2 75 1.9 WNW 11 15 6 8 - - 0.0
25/04:00am 9.6 5.7 5.2 74 2.0 WNW 15 17 8 9 - - 0.0
25/03:30am 9.7 6.0 4.5 70 2.3 WNW 13 15 7 8 - - 0.0
25/03:00am 10.0 7.1 4.6 69 2.4 WNW 9 13 5 7 - - 0.0
25/02:30am 9.9 6.6 4.5 69 2.4 WNW 11 13 6 7 - - 0.0
25/02:00am 10.7 6.3 4.6 66 2.7 WNW 17 20 9 11 - - 0.0
25/01:30am 11.3 8.1 5.2 66 2.8 WNW 11 15 6 8 - - 0.0
25/01:00am 12.2 9.5 5.4 63 3.2 NW 9 11 5 6 - - 0.0
25/12:30am 12.9 10.6 5.8 62 3.3 NW 7 11 4 6 - - 0.0
25/12:00am 13.4 10.5 4.6 55 4.1 WNW 9 11 5 6 - - 0.0
 
Date/Time
EST
Temp
°C
App
Temp
°C
Dew
Point
°C
Rel
Hum
%
Delta-T
°C
Wind Press
QNH
hPa
Press
MSL
hPa
Rain since
9am
mm
Dir  Spd
km/h
Gust
km/h
Spd
kts
Gust
kts
24/11:30pm 14.0 11.7 4.9 54 4.2 WNW 6 9 3 5 - - 0.0
24/11:00pm 14.3 12.2 5.7 56 4.1 W 6 7 3 4 - - 0.0
24/10:30pm 15.3 12.7 3.1 44 5.5 WSW 6 9 3 5 - - 0.0
24/10:00pm 15.8 12.4 3.9 45 5.5 SW 11 17 6 9 - - 0.0
24/09:30pm 14.5 12.3 7.8 64 3.3 W 9 13 5 7 - - 0.0
24/09:00pm 14.6 13.4 10.2 75 2.3 W 7 13 4 7 - - 0.0
24/08:30pm 16.4 15.8 10.3 67 3.2 NNW 4 9 2 5 - - 0.0
24/08:00pm 17.2 15.9 9.9 62 3.9 SE 7 13 4 7 - - 0.0
24/07:30pm 17.2 15.5 9.9 62 3.9 SE 9 9 5 5 - - 0.0
24/07:00pm 17.2 16.3 10.6 65 3.5 SSE 6 7 3 4 - - 0.0

Other Formats:

Comma delimited format used in spreadsheet applications
http://www.bom.gov.au/fwo/IDN60801/IDN60801.94774.axf

JavaScript Object Notation format (JSON) in row-major order
http://www.bom.gov.au/fwo/IDN60801/IDN60801.94774.json